Time;durP1;ratioP1;P1;durP2;ratioP2;P2;SDS_P1;SDS_P2;PMS_P1;PMS_P2;Temp;Humidity;BMP_temperature;BMP_pressure;BME280_temperature;BME280_humidity;BME280_pressure;Samples;Min_cycle;Max_cycle;Signal;HPM_P1;HPM_P2
2024/01/15 00:02:17;;;;;;;29.92;14.48;;;;;;;4.85;63.63;100391.28;5153085;27;20487;-68
2024/01/15 00:04:45;;;;;;;32.72;15.10;;;;;;;4.85;63.77;100377.97;5146949;27;20051;-67
2024/01/15 00:07:13;;;;;;;25.88;13.82;;;;;;;4.85;64.10;100385.13;5149674;27;20107;-68
2024/01/15 00:09:41;;;;;;;26.95;14.30;;;;;;;4.84;63.83;100381.66;5153940;27;20046;-67
2024/01/15 00:12:09;;;;;;;27.45;14.23;;;;;;;4.84;64.25;100380.84;5153539;27;20099;-67
2024/01/15 00:14:37;;;;;;;26.65;13.50;;;;;;;4.82;64.26;100378.38;5147933;27;20056;-67
2024/01/15 00:17:06;;;;;;;29.33;13.77;;;;;;;4.84;64.21;100375.50;5146854;27;20046;-67
2024/01/15 00:19:34;;;;;;;24.45;13.07;;;;;;;4.83;64.23;100366.69;5154409;27;20083;-67
2024/01/15 00:22:02;;;;;;;29.20;13.73;;;;;;;4.84;63.88;100356.88;5139099;27;20429;-67
2024/01/15 00:24:29;;;;;;;20.30;11.75;;;;;;;4.84;64.06;100347.03;5145721;27;20043;-67
2024/01/15 00:26:57;;;;;;;24.77;12.65;;;;;;;4.83;64.12;100352.56;5142843;27;20058;-67
2024/01/15 00:29:25;;;;;;;23.48;11.52;;;;;;;4.84;64.04;100351.53;5151082;27;20092;-67
2024/01/15 00:31:53;;;;;;;20.98;11.07;;;;;;;4.84;64.01;100348.88;5142661;27;20054;-67
2024/01/15 00:34:22;;;;;;;20.90;11.32;;;;;;;4.82;63.97;100345.59;5152123;27;20042;-67
2024/01/15 00:36:50;;;;;;;21.65;12.60;;;;;;;4.83;64.44;100341.91;5145862;27;20062;-67
2024/01/15 00:39:18;;;;;;;20.52;10.98;;;;;;;4.81;64.13;100343.94;5146063;27;20476;-67
2024/01/15 00:41:46;;;;;;;20.65;10.07;;;;;;;4.79;64.37;100344.16;5147721;27;20070;-67
2024/01/15 00:44:14;;;;;;;18.60;10.07;;;;;;;4.79;64.09;100338.00;5151194;27;20088;-67
2024/01/15 00:46:45;;;;;;;16.88;8.50;;;;;;;4.79;64.38;100325.50;5150467;27;20047;-67
2024/01/15 00:49:13;;;;;;;12.90;7.82;;;;;;;4.79;64.40;100322.03;5146307;27;21161;-67
2024/01/15 00:51:43;;;;;;;17.58;8.15;;;;;;;4.78;64.30;100328.38;5151868;27;20046;-67
2024/01/15 00:54:11;;;;;;;16.00;6.97;;;;;;;4.78;64.25;100317.72;5143321;27;20047;-67
2024/01/15 00:56:39;;;;;;;13.00;7.95;;;;;;;4.77;64.08;100324.06;5141320;27;20130;-67
2024/01/15 00:59:07;;;;;;;11.27;6.20;;;;;;;4.76;64.02;100312.59;5153443;27;20038;-67
2024/01/15 01:01:35;;;;;;;12.13;6.68;;;;;;;4.77;64.22;100308.91;5145012;27;20408;-68
2024/01/15 01:04:03;;;;;;;10.30;5.32;;;;;;;4.76;64.46;100323.25;5149938;27;20106;-67
2024/01/15 01:06:31;;;;;;;9.73;5.05;;;;;;;4.74;64.08;100317.28;5145014;27;20499;-67
2024/01/15 01:09:02;;;;;;;9.77;4.65;;;;;;;4.72;64.05;100311.34;5146893;27;20498;-67
2024/01/15 01:11:30;;;;;;;11.63;4.22;;;;;;;4.76;64.28;100322.41;5144331;27;20069;-67
2024/01/15 01:13:58;;;;;;;9.05;4.45;;;;;;;4.71;64.59;100306.22;5150157;27;20051;-67
2024/01/15 01:16:26;;;;;;;9.27;4.13;;;;;;;4.73;64.74;100310.31;5149387;27;20076;-67
2024/01/15 01:18:53;;;;;;;8.55;4.22;;;;;;;4.74;64.42;100313.81;5150422;27;20163;-67
2024/01/15 01:21:21;;;;;;;8.43;3.50;;;;;;;4.74;64.65;100311.97;5154050;27;20147;-67
2024/01/15 01:23:49;;;;;;;8.40;3.80;;;;;;;4.74;64.44;100309.31;5145587;27;20125;-67
2024/01/15 01:26:19;;;;;;;6.57;3.00;;;;;;;4.77;64.24;100295.59;5151287;27;20055;-67
2024/01/15 01:28:46;;;;;;;6.93;2.92;;;;;;;4.77;64.56;100305.44;5142930;27;20051;-67
2024/01/15 01:31:16;;;;;;;7.47;3.15;;;;;;;4.76;64.70;100301.13;5153509;27;20048;-67
2024/01/15 01:33:44;;;;;;;5.38;2.70;;;;;;;4.77;64.83;100300.09;5147275;27;20047;-67
2024/01/15 01:36:12;;;;;;;4.50;2.30;;;;;;;4.77;64.84;100303.59;5139545;27;20068;-67
2024/01/15 01:38:41;;;;;;;5.15;2.95;;;;;;;4.77;64.27;100308.91;5149105;27;20039;-67
2024/01/15 01:41:09;;;;;;;6.07;2.92;;;;;;;4.76;64.61;100304.59;5149919;27;20051;-68
2024/01/15 01:43:38;;;;;;;6.28;2.90;;;;;;;4.74;64.55;100313.81;5151397;27;20067;-68
2024/01/15 01:46:07;;;;;;;6.00;2.80;;;;;;;4.72;65.17;100322.00;5157221;27;20068;-68
2024/01/15 01:48:36;;;;;;;6.43;2.67;;;;;;;4.74;65.04;100311.16;5150887;27;20131;-67
2024/01/15 01:51:05;;;;;;;4.75;2.35;;;;;;;4.73;64.96;100297.03;5149480;27;20043;-67
2024/01/15 01:53:35;;;;;;;5.85;2.63;;;;;;;4.73;64.79;100301.53;5149289;27;20050;-68
2024/01/15 01:56:04;;;;;;;6.38;2.42;;;;;;;4.73;64.79;100306.84;5149768;27;20096;-67
2024/01/15 01:58:34;;;;;;;4.25;2.05;;;;;;;4.71;64.66;100306.22;5144789;27;20070;-68
2024/01/15 02:01:03;;;;;;;4.15;2.13;;;;;;;4.72;65.22;100308.69;5144622;27;20096;-68
2024/01/15 02:03:32;;;;;;;3.90;2.10;;;;;;;4.70;64.84;100301.91;5145170;27;20048;-67
2024/01/15 02:06:00;;;;;;;6.07;2.53;;;;;;;4.69;65.01;100311.75;5151737;27;20049;-67
2024/01/15 02:08:28;;;;;;;4.45;2.63;;;;;;;4.70;64.83;100307.25;5081064;27;20053;-68
2024/01/15 02:10:56;;;;;;;5.75;2.72;;;;;;;4.71;64.61;100303.56;5045343;28;20058;-67
2024/01/15 02:13:24;;;;;;;7.30;2.88;;;;;;;4.70;65.05;100300.06;5042848;28;20049;-67
2024/01/15 02:15:52;;;;;;;5.72;2.80;;;;;;;4.67;65.16;100294.31;5039484;28;20079;-68
2024/01/15 02:18:21;;;;;;;4.38;2.20;;;;;;;4.66;65.29;100298.81;5041902;28;20050;-67
2024/01/15 02:20:49;;;;;;;6.57;2.92;;;;;;;4.65;65.01;100297.19;5037120;28;20129;-67
2024/01/15 02:23:18;;;;;;;6.65;2.65;;;;;;;4.65;65.19;100299.84;5041169;28;20054;-67
2024/01/15 02:25:47;;;;;;;11.32;2.92;;;;;;;4.64;65.22;100303.53;5035514;28;20045;-67
2024/01/15 02:28:17;;;;;;;6.05;2.50;;;;;;;4.66;64.80;100306.00;5048492;28;20562;-67
2024/01/15 02:30:45;;;;;;;4.50;2.70;;;;;;;4.65;64.66;100305.16;5048216;28;20494;-67
2024/01/15 02:33:13;;;;;;;4.25;2.28;;;;;;;4.64;65.25;100302.69;5052936;28;20096;-67
2024/01/15 02:35:42;;;;;;;9.65;2.90;;;;;;;4.64;64.96;100292.88;5055102;28;20073;-67
2024/01/15 02:38:10;;;;;;;5.03;2.38;;;;;;;4.64;64.74;100298.19;5056314;28;20048;-67
2024/01/15 02:40:39;;;;;;;8.27;3.75;;;;;;;4.58;64.97;100285.69;5049504;28;20045;-67
2024/01/15 02:43:07;;;;;;;3.88;2.33;;;;;;;4.62;64.81;100302.91;5038548;28;20059;-67
2024/01/15 02:45:35;;;;;;;5.55;1.98;;;;;;;4.62;65.09;100300.25;5050040;28;20479;-67
2024/01/15 02:48:03;;;;;;;4.90;2.15;;;;;;;4.60;65.20;100290.81;5048279;27;20045;-68
2024/01/15 02:50:31;;;;;;;3.58;1.63;;;;;;;4.61;65.03;100279.97;5046632;28;20113;-67
2024/01/15 02:52:59;;;;;;;3.92;1.80;;;;;;;4.61;65.10;100281.81;5053092;28;20041;-68
2024/01/15 02:55:29;;;;;;;5.97;2.17;;;;;;;4.58;65.15;100291.81;5045094;28;20065;-67
2024/01/15 02:57:58;;;;;;;4.05;1.48;;;;;;;4.60;64.59;100294.28;5044293;28;20483;-67
2024/01/15 03:00:26;;;;;;;6.60;1.70;;;;;;;4.60;64.75;100298.78;5048104;28;20057;-67
2024/01/15 03:02:54;;;;;;;3.90;1.45;;;;;;;4.60;64.46;100291.63;5048525;28;20049;-68
2024/01/15 03:05:22;;;;;;;4.78;1.65;;;;;;;4.60;65.01;100294.28;5046189;28;20053;-68
2024/01/15 03:07:50;;;;;;;3.25;1.65;;;;;;;4.60;64.94;100301.44;5093622;27;20515;-67
2024/01/15 03:10:17;;;;;;;5.07;1.88;;;;;;;4.58;64.90;100297.16;5138925;27;20073;-67
2024/01/15 03:12:45;;;;;;;5.70;1.75;;;;;;;4.58;65.05;100297.16;5146398;27;20046;-67
2024/01/15 03:15:14;;;;;;;3.35;1.48;;;;;;;4.58;64.78;100301.66;5145754;27;20158;-67
2024/01/15 03:17:43;;;;;;;2.25;1.40;;;;;;;4.58;65.09;100299.00;5142482;27;20047;-67
2024/01/15 03:20:12;;;;;;;3.30;1.50;;;;;;;4.56;64.57;100299.19;5145802;27;20067;-68
2024/01/15 03:22:40;;;;;;;5.72;1.52;;;;;;;4.59;65.21;100311.28;5146838;27;20077;-68
2024/01/15 03:25:08;;;;;;;5.43;1.45;;;;;;;4.57;65.03;100302.66;5150565;27;20127;-68
2024/01/15 03:27:36;;;;;;;2.17;1.27;;;;;;;4.56;64.80;100312.50;5147973;27;20039;-67
2024/01/15 03:30:04;;;;;;;6.93;2.28;;;;;;;4.56;65.10;100306.34;5148228;27;20038;-68
2024/01/15 03:32:34;;;;;;;4.18;1.83;;;;;;;4.54;65.39;100298.56;5143432;27;20051;-68
2024/01/15 03:35:02;;;;;;;5.55;1.58;;;;;;;4.55;64.77;100300.19;5144242;27;20042;-68
2024/01/15 04:41:29;;;;;;;3.58;1.20;;;;;;;4.48;65.10;100237.31;4850962;28;20156;-73
2024/01/15 04:43:57;;;;;;;7.50;1.52;;;;;;;4.46;65.46;100242.00;4948397;29;20077;-73
2024/01/15 04:46:24;;;;;;;5.15;1.75;;;;;;;4.46;65.29;100247.34;4952599;29;20055;-73
2024/01/15 04:48:52;;;;;;;5.95;1.20;;;;;;;4.48;65.39;100246.13;4944236;29;20052;-72
2024/01/15 04:51:20;;;;;;;2.92;1.00;;;;;;;4.44;65.53;100254.69;4945301;29;20076;-73
2024/01/15 04:53:48;;;;;;;3.90;1.40;;;;;;;4.41;65.56;100244.44;4944990;29;20055;-73
2024/01/15 04:56:16;;;;;;;3.97;1.08;;;;;;;4.42;65.02;100244.25;4944333;29;20044;-73
2024/01/15 04:58:46;;;;;;;3.42;0.90;;;;;;;4.43;65.39;100253.88;4944635;29;20040;-73
2024/01/15 05:01:16;;;;;;;4.47;0.98;;;;;;;4.41;64.96;100247.94;4941821;29;20051;-73
2024/01/15 05:03:44;;;;;;;3.80;1.10;;;;;;;4.38;65.32;100243.00;4949218;29;20058;-72
2024/01/15 05:06:12;;;;;;;2.75;0.80;;;;;;;4.35;65.40;100238.06;4938661;29;20047;-73
2024/01/15 05:08:40;;;;;;;2.72;0.60;;;;;;;4.39;65.48;100241.16;4944650;29;20083;-73
2024/01/15 05:11:08;;;;;;;2.28;1.45;;;;;;;4.38;65.58;100245.66;4937239;29;20083;-73
2024/01/15 05:13:35;;;;;;;2.40;1.40;;;;;;;4.38;65.56;100244.84;4944594;29;20120;-73
2024/01/15 05:16:05;;;;;;;5.35;1.20;;;;;;;4.37;65.40;100233.38;4942231;29;20055;-73
2024/01/15 05:18:33;;;;;;;3.40;0.90;;;;;;;4.36;65.34;100229.06;4945659;29;20051;-73
2024/01/15 05:21:02;;;;;;;5.05;1.00;;;;;;;4.38;65.38;100229.69;4931092;29;20052;-73
2024/01/15 05:23:31;;;;;;;5.97;1.45;;;;;;;4.40;65.45;100227.66;4926822;29;20052;-72
2024/01/15 05:25:59;;;;;;;3.25;0.90;;;;;;;4.35;65.39;100215.97;4942679;29;20106;-73
2024/01/15 05:28:27;;;;;;;4.03;1.17;;;;;;;4.42;65.43;100228.28;4945279;29;20303;-73
2024/01/15 05:30:55;;;;;;;1.80;0.80;;;;;;;4.43;65.23;100221.13;4943843;29;20047;-73
2024/01/15 05:33:25;;;;;;;6.47;1.23;;;;;;;4.43;65.63;100218.47;4945963;29;20096;-73
2024/01/15 05:35:53;;;;;;;3.15;0.88;;;;;;;4.44;65.23;100220.09;4944841;29;20056;-73
2024/01/15 05:38:21;;;;;;;8.07;1.75;;;;;;;4.43;65.20;100219.28;4942249;29;20055;-73
2024/01/15 05:40:49;;;;;;;3.58;0.90;;;;;;;4.45;65.13;100211.13;4939991;29;20055;-72
2024/01/15 05:43:17;;;;;;;1.90;0.65;;;;;;;4.44;65.30;100210.28;4945770;29;20055;-73
2024/01/15 05:45:45;;;;;;;5.43;1.33;;;;;;;4.37;65.46;100193.47;4938850;29;20458;-73
2024/01/15 05:48:13;;;;;;;6.60;1.40;;;;;;;4.45;65.62;100205.78;4944757;29;20137;-73
2024/01/15 05:50:42;;;;;;;5.10;1.15;;;;;;;4.44;65.79;100204.16;4942615;29;20059;-73
2024/01/15 05:53:10;;;;;;;5.72;1.23;;;;;;;4.44;65.46;100204.97;4944444;29;20055;-73
2024/01/15 05:55:38;;;;;;;5.03;1.25;;;;;;;4.45;65.30;100201.28;4941730;29;20051;-73
2024/01/15 05:58:06;;;;;;;3.90;1.00;;;;;;;4.45;65.30;100203.13;4938779;29;20052;-73
2024/01/15 06:00:35;;;;;;;2.30;1.23;;;;;;;4.45;65.17;100203.94;4942565;29;20056;-74
2024/01/15 06:03:03;;;;;;;6.25;2.00;;;;;;;4.44;65.46;100196.97;4943897;29;20099;-75
2024/01/15 06:05:31;;;;;;;8.15;2.03;;;;;;;4.45;65.66;100193.31;4940362;29;20052;-73
2024/01/15 06:08:00;;;;;;;4.32;1.70;;;;;;;4.43;65.94;100190.03;4942520;29;20521;-73
2024/01/15 06:10:28;;;;;;;3.38;1.13;;;;;;;4.44;65.14;100196.97;4943324;29;20048;-73
2024/01/15 06:12:56;;;;;;;6.00;2.15;;;;;;;4.44;65.73;100194.31;4937780;29;20065;-72
2024/01/15 06:15:24;;;;;;;6.85;1.58;;;;;;;4.44;65.73;100194.31;4938519;29;20056;-71
2024/01/15 06:17:51;;;;;;;6.32;2.10;;;;;;;4.43;65.37;100189.19;4942990;29;20066;-73
2024/01/15 06:20:20;;;;;;;4.85;1.30;;;;;;;4.44;65.53;100194.31;4945010;29;20120;-70
2024/01/15 06:22:47;;;;;;;6.82;1.75;;;;;;;4.43;65.61;100189.19;4945797;29;20080;-70
2024/01/15 06:25:16;;;;;;;2.88;1.17;;;;;;;4.51;65.30;100183.72;4941057;29;20127;-70
2024/01/15 06:27:44;;;;;;;5.88;1.60;;;;;;;4.65;64.81;100192.56;4946516;29;20044;-69
2024/01/15 06:30:13;;;;;;;3.85;1.25;;;;;;;4.76;64.98;100190.16;4946498;29;20051;-69
2024/01/15 06:32:41;;;;;;;5.68;1.35;;;;;;;4.93;63.80;100189.78;4941877;29;20110;-68
2024/01/15 06:35:10;;;;;;;3.78;1.30;;;;;;;5.09;63.55;100176.09;4946790;29;20422;-67
2024/01/15 06:37:38;;;;;;;4.20;1.60;;;;;;;5.24;62.81;100177.53;4942461;29;20434;-69
2024/01/15 06:40:08;;;;;;;4.55;1.42;;;;;;;5.41;62.04;100183.28;4939992;29;20045;-69
2024/01/15 06:42:37;;;;;;;2.67;1.33;;;;;;;5.57;62.00;100188.19;4956328;28;20051;-67
2024/01/15 06:45:06;;;;;;;4.75;1.80;;;;;;;5.70;61.46;100184.69;4944114;29;20044;-69
2024/01/15 06:47:34;;;;;;;4.93;1.75;;;;;;;5.81;61.09;100180.59;4948497;29;20047;-68
2024/01/15 06:50:02;;;;;;;3.40;1.08;;;;;;;5.84;61.10;100181.00;4948010;29;20436;-68
2024/01/15 06:52:29;;;;;;;3.03;1.60;;;;;;;5.78;60.94;100176.50;4946993;29;20083;-68
2024/01/15 06:54:57;;;;;;;2.35;1.58;;;;;;;5.67;61.45;100176.31;4947939;29;20102;-68
2024/01/15 06:57:25;;;;;;;6.80;1.55;;;;;;;5.53;61.79;100176.31;4257364;29;10000843;-68
2024/01/15 06:59:54;;;;;;;2.78;1.55;;;;;;;5.37;61.96;100182.03;4934184;29;20047;-69
2024/01/15 07:02:22;;;;;;;6.05;1.45;;;;;;;5.23;62.85;100173.22;4931843;29;20114;-70
2024/01/15 07:04:50;;;;;;;6.60;1.45;;;;;;;5.14;62.67;100173.66;4935428;29;20375;-69
2024/01/15 07:07:19;;;;;;;4.18;1.55;;;;;;;5.08;63.17;100174.47;4943312;29;20655;-72
2024/01/15 07:09:47;;;;;;;4.32;1.30;;;;;;;5.02;63.20;100177.94;4942368;29;20052;-70
2024/01/15 07:12:16;;;;;;;4.63;1.60;;;;;;;4.96;63.36;100176.06;4937075;29;20059;-65
2024/01/15 07:14:44;;;;;;;4.20;1.58;;;;;;;4.93;63.57;100174.63;4945752;29;20051;-62
2024/01/15 07:17:13;;;;;;;4.05;1.60;;;;;;;4.87;63.75;100178.91;4946995;29;20083;-70
2024/01/15 07:19:41;;;;;;;3.90;1.35;;;;;;;4.80;64.06;100182.59;4936469;29;20107;-67
2024/01/15 07:22:10;;;;;;;3.25;1.10;;;;;;;4.76;64.17;100179.50;4946155;29;20075;-69
2024/01/15 07:24:37;;;;;;;3.55;1.40;;;;;;;4.71;64.61;100181.94;4947197;29;20138;-75
2024/01/15 07:27:05;;;;;;;3.58;1.10;;;;;;;4.68;64.63;100187.66;4948422;29;20052;-75
2024/01/15 07:29:35;;;;;;;3.20;1.10;;;;;;;4.65;64.99;100187.25;4939450;29;20051;-70
2024/01/15 07:32:04;;;;;;;2.97;1.23;;;;;;;4.63;64.60;100189.28;4948464;29;20067;-68
2024/01/15 07:34:33;;;;;;;1.10;1.00;;;;;;;4.54;64.45;100189.47;4947827;29;20055;-74
2024/01/15 07:37:02;;;;;;;2.85;1.10;;;;;;;4.52;65.05;100185.34;4944773;29;20086;-67
2024/01/15 07:39:30;;;;;;;3.97;1.17;;;;;;;4.54;64.82;100178.81;4943548;29;20118;-70
2024/01/15 07:41:58;;;;;;;3.22;0.90;;;;;;;4.67;64.82;100182.53;4943689;29;20051;-70
2024/01/15 07:44:26;;;;;;;3.25;0.80;;;;;;;4.78;64.22;100176.63;4942796;29;20083;-71
2024/01/15 07:46:54;;;;;;;2.00;0.90;;;;;;;4.98;63.71;100184.69;4937527;29;20056;-70
2024/01/15 07:49:23;;;;;;;1.83;0.90;;;;;;;5.04;63.25;100183.88;4943318;29;20056;-70
2024/01/15 07:51:52;;;;;;;2.17;1.00;;;;;;;5.06;63.18;100192.47;4946696;29;20111;-70
2024/01/15 07:54:20;;;;;;;1.77;1.15;;;;;;;5.00;63.09;100195.94;4945982;29;20058;-70
2024/01/15 07:56:55;;;;;;;3.35;1.83;;;;;;;4.93;63.68;100203.91;4945569;29;20050;-71
2024/01/15 07:59:24;;;;;;;3.00;1.52;;;;;;;4.84;63.46;100207.78;4941497;29;20084;-71
2024/01/15 08:01:52;;;;;;;2.85;1.48;;;;;;;4.78;63.94;100206.75;4941592;29;20048;-71
2024/01/15 08:04:21;;;;;;;2.20;1.40;;;;;;;4.69;64.08;100207.13;4937728;29;20071;-71
2024/01/15 08:06:50;;;;;;;2.88;1.70;;;;;;;4.66;64.63;100215.50;4943898;29;20533;-71
2024/01/15 08:09:19;;;;;;;2.08;1.38;;;;;;;4.60;63.95;100213.63;4938699;29;20138;-71
2024/01/15 08:11:47;;;;;;;3.33;1.45;;;;;;;4.62;64.44;100222.25;4944734;29;20071;-71
2024/01/15 08:14:15;;;;;;;2.17;1.42;;;;;;;4.56;64.44;100226.50;4945879;29;20062;-71
2024/01/15 08:16:43;;;;;;;1.42;1.13;;;;;;;4.48;64.69;100224.00;4940428;29;20075;-71
2024/01/15 08:19:11;;;;;;;3.78;1.15;;;;;;;4.48;64.90;100219.50;4942749;29;20051;-71
2024/01/15 08:21:40;;;;;;;3.22;1.75;;;;;;;4.45;65.15;100219.09;4945625;29;20377;-71
2024/01/15 08:24:08;;;;;;;4.30;1.75;;;;;;;4.43;65.21;100215.81;4945116;29;20086;-71
2024/01/15 08:26:37;;;;;;;1.50;1.20;;;;;;;4.43;65.09;100213.97;4945526;29;20491;-71
2024/01/15 08:29:05;;;;;;;2.72;1.15;;;;;;;4.46;65.09;100220.72;4943073;29;20053;-71
2024/01/15 08:31:33;;;;;;;1.45;1.30;;;;;;;4.41;64.90;100223.16;4943932;29;20039;-71
2024/01/15 08:34:01;;;;;;;1.40;1.30;;;;;;;4.35;65.54;100218.63;4945596;29;20053;-70
2024/01/15 08:36:30;;;;;;;1.48;1.30;;;;;;;4.30;65.40;100223.72;4944486;29;20047;-69
2024/01/15 08:38:58;;;;;;;2.35;1.17;;;;;;;4.37;65.46;100232.56;4945622;29;20515;-70
2024/01/15 08:41:26;;;;;;;1.55;1.05;;;;;;;4.35;65.34;100231.94;4945702;29;20123;-71
2024/01/15 08:43:55;;;;;;;3.38;1.05;;;;;;;4.31;65.44;100231.50;4935251;29;20066;-70
2024/01/15 08:46:24;;;;;;;2.05;1.25;;;;;;;4.33;65.07;100232.13;4945407;29;20078;-70
2024/01/15 08:48:52;;;;;;;3.28;1.02;;;;;;;4.38;65.19;100235.03;4944637;29;20432;-70
2024/01/15 08:51:20;;;;;;;5.78;1.02;;;;;;;4.49;64.96;100241.63;4945804;29;20048;-71
2024/01/15 08:53:47;;;;;;;1.40;0.77;;;;;;;4.41;64.53;100236.47;4943029;29;20198;-68
2024/01/15 08:56:15;;;;;;;3.55;1.10;;;;;;;4.48;65.14;100230.16;4946385;29;20059;-69
2024/01/15 08:58:43;;;;;;;2.58;0.75;;;;;;;4.67;64.59;100227.78;4939077;29;20079;-67
2024/01/15 09:01:12;;;;;;;3.28;1.00;;;;;;;4.83;63.59;100230.91;4939496;29;20047;-69
2024/01/15 09:03:42;;;;;;;1.67;0.88;;;;;;;4.92;63.39;100228.09;4945665;29;20087;-71
2024/01/15 09:06:10;;;;;;;2.20;0.82;;;;;;;5.09;62.98;100235.50;4944325;29;20072;-70
2024/01/15 09:08:38;;;;;;;2.67;1.10;;;;;;;5.21;62.85;100233.03;4935761;29;20746;-70
2024/01/15 09:11:06;;;;;;;4.85;1.23;;;;;;;5.23;62.34;100237.16;4928033;29;20051;-72
2024/01/15 09:13:34;;;;;;;2.50;0.70;;;;;;;5.24;62.45;100246.78;4962946;29;20070;-72
2024/01/15 09:16:02;;;;;;;2.45;0.60;;;;;;;5.31;62.40;100245.97;4946309;29;20079;-72
2024/01/15 09:18:31;;;;;;;2.40;0.80;;;;;;;5.38;61.97;100238.81;4951686;29;20070;-71
2024/01/15 09:21:00;;;;;;;3.35;0.90;;;;;;;5.37;62.09;100242.50;4965778;29;20055;-71
2024/01/15 09:23:28;;;;;;;2.08;0.68;;;;;;;5.54;61.23;100246.41;4951733;29;20477;-71
2024/01/15 09:25:56;;;;;;;5.30;1.20;;;;;;;5.61;61.07;100262.41;4962471;29;20053;-70
2024/01/15 09:28:24;;;;;;;2.65;0.85;;;;;;;5.67;60.97;100250.94;4964844;29;20588;-71
2024/01/15 09:30:51;;;;;;;3.28;1.33;;;;;;;5.73;60.80;100256.28;4951348;29;20055;-71
2024/01/15 09:33:19;;;;;;;3.17;1.13;;;;;;;5.80;60.72;100254.44;4962542;29;20051;-70
2024/01/15 09:35:48;;;;;;;3.15;1.13;;;;;;;5.86;60.53;100252.78;4964466;29;20094;-71
2024/01/15 09:38:18;;;;;;;2.95;0.80;;;;;;;5.90;60.16;100250.56;4964882;29;20473;-70
2024/01/15 09:40:47;;;;;;;2.65;1.05;;;;;;;5.76;60.58;100250.53;4957862;29;20047;-70
2024/01/15 09:43:15;;;;;;;4.65;1.40;;;;;;;5.61;60.97;100244.59;4963369;29;20059;-72
2024/01/15 09:45:45;;;;;;;4.45;0.73;;;;;;;5.45;61.72;100239.66;4961520;29;20051;-72
2024/01/15 09:48:13;;;;;;;2.00;0.70;;;;;;;5.36;61.94;100230.19;4962109;29;20087;-71
2024/01/15 09:50:41;;;;;;;5.20;0.95;;;;;;;5.48;61.74;100233.91;4964523;29;20047;-71
2024/01/15 09:53:10;;;;;;;2.20;0.90;;;;;;;5.65;61.67;100237.81;4953918;29;20056;-72
2024/01/15 09:55:38;;;;;;;2.33;0.82;;;;;;;5.80;60.64;100241.09;4959985;29;20055;-72
2024/01/15 09:58:06;;;;;;;1.98;0.85;;;;;;;5.93;60.55;100247.50;4953828;28;20083;-71
2024/01/15 10:00:36;;;;;;;1.45;0.77;;;;;;;6.05;59.80;100251.16;4949123;29;20400;-71
2024/01/15 10:03:06;;;;;;;5.57;1.08;;;;;;;6.16;60.10;100247.88;4955419;29;20114;-71
2024/01/15 10:05:34;;;;;;;6.00;1.20;;;;;;;6.18;59.46;100262.66;4968500;29;20150;-71
2024/01/15 10:08:03;;;;;;;2.92;0.68;;;;;;;6.26;59.65;100250.13;4967543;29;20150;-72
2024/01/15 10:10:33;;;;;;;3.58;0.90;;;;;;;6.28;59.58;100250.72;4966040;29;20066;-72
2024/01/15 10:13:01;;;;;;;3.75;0.93;;;;;;;6.30;59.07;100246.00;4968809;29;20043;-71
2024/01/15 10:15:29;;;;;;;1.52;0.77;;;;;;;6.36;58.75;100254.00;4966752;29;20078;-70
2024/01/15 10:17:57;;;;;;;1.10;0.70;;;;;;;6.34;59.18;100248.03;4968582;29;20051;-69
2024/01/15 10:20:24;;;;;;;1.45;0.80;;;;;;;6.34;58.97;100249.91;4965943;29;20082;-71
2024/01/15 10:22:52;;;;;;;3.78;1.30;;;;;;;6.30;59.13;100235.31;4967853;29;20075;-70
2024/01/15 10:25:24;;;;;;;3.08;1.10;;;;;;;6.18;59.72;100238.63;4961679;29;20071;-71
2024/01/15 10:28:03;;;;;;;3.22;1.67;;;;;;;6.00;60.25;100237.63;4949192;29;20056;-70
2024/01/15 10:30:31;;;;;;;2.60;1.13;;;;;;;5.86;60.71;100242.13;4956907;29;20055;-70
2024/01/15 10:33:01;;;;;;;3.25;0.80;;;;;;;5.69;61.29;100238.22;4967564;29;20054;-70
2024/01/15 10:35:31;;;;;;;4.10;1.00;;;;;;;5.54;61.70;100236.56;4950683;29;20054;-70
2024/01/15 10:37:59;;;;;;;3.88;0.95;;;;;;;5.46;61.96;100242.09;4958191;29;20047;-71
2024/01/15 10:40:27;;;;;;;4.47;1.10;;;;;;;5.37;62.22;100238.00;4963701;29;20070;-70
2024/01/15 10:42:55;;;;;;;3.70;1.55;;;;;;;5.35;62.36;100232.03;4948717;29;20091;-70
2024/01/15 10:45:25;;;;;;;2.70;1.27;;;;;;;5.26;62.99;100243.09;4952920;29;20131;-70
2024/01/15 10:47:58;;;;;;;2.13;0.98;;;;;;;5.18;62.84;100252.13;4968556;29;20063;-71
2024/01/15 10:50:27;;;;;;;3.60;1.17;;;;;;;5.13;63.36;100244.75;4966792;29;20051;-71
2024/01/15 10:52:55;;;;;;;1.55;1.10;;;;;;;5.13;63.53;100246.59;4963682;29;20093;-71
2024/01/15 10:55:24;;;;;;;3.63;1.15;;;;;;;5.06;63.85;100251.06;4966485;29;20120;-71
2024/01/15 10:57:56;;;;;;;4.53;1.60;;;;;;;5.03;63.93;100252.28;4966580;29;20074;-72
2024/01/15 11:00:26;;;;;;;4.35;1.80;;;;;;;4.97;64.06;100252.28;4952795;29;20047;-71
2024/01/15 11:02:55;;;;;;;5.05;1.85;;;;;;;4.95;64.09;100243.66;4968046;29;20054;-72
2024/01/15 11:05:24;;;;;;;3.95;1.77;;;;;;;5.01;63.93;100246.34;4966910;29;20051;-71
2024/01/15 11:07:56;;;;;;;6.47;2.00;;;;;;;5.11;63.60;100246.78;4963281;29;20043;-72
2024/01/15 11:10:40;;;;;;;5.85;2.05;;;;;;;5.30;63.07;100247.00;4966399;29;20048;-71
2024/01/15 11:13:10;;;;;;;3.10;1.30;;;;;;;5.48;62.49;100239.25;4965705;29;20048;-71
2024/01/15 11:15:59;;;;;;;2.88;1.63;;;;;;;5.67;61.64;100238.44;4965591;29;20051;-72
2024/01/15 11:18:29;;;;;;;3.70;1.30;;;;;;;5.88;61.05;100250.75;4967636;29;20477;-71
2024/01/15 11:21:23;;;;;;;7.22;1.80;;;;;;;5.99;60.80;100247.47;4962911;29;20051;-70
2024/01/15 11:23:52;;;;;;;3.78;1.73;;;;;;;6.13;60.48;100253.63;4966409;29;20051;-70
2024/01/15 11:26:31;;;;;;;5.35;2.03;;;;;;;6.11;60.44;100253.00;4965923;29;20464;-69
2024/01/15 11:29:01;;;;;;;4.50;1.70;;;;;;;6.02;60.42;100251.59;4967083;29;20114;-72
2024/01/15 11:31:31;;;;;;;4.72;1.35;;;;;;;5.90;61.49;100259.38;4964886;29;20055;-72
2024/01/15 11:33:59;;;;;;;5.47;1.80;;;;;;;5.78;61.49;100264.47;4966631;29;20043;-71
2024/01/15 11:37:02;;;;;;;4.43;1.30;;;;;;;5.62;62.34;100272.06;4966442;29;20456;-71
2024/01/15 11:39:46;;;;;;;6.35;1.38;;;;;;;5.44;62.70;100284.13;4947090;29;20047;-72
2024/01/15 11:42:15;;;;;;;2.33;1.00;;;;;;;5.30;63.00;100287.78;4960740;29;20441;-72
2024/01/15 11:44:44;;;;;;;5.78;1.17;;;;;;;5.10;63.71;100278.94;4967090;29;20047;-71
2024/01/15 11:47:14;;;;;;;3.05;1.20;;;;;;;5.14;63.35;100286.34;4964455;29;20123;-71
2024/01/15 11:50:06;;;;;;;1.75;0.90;;;;;;;5.06;64.08;100267.88;4965998;29;20126;-71
2024/01/15 11:52:36;;;;;;;1.90;1.08;;;;;;;5.10;63.62;100276.28;4952683;29;20115;-70
2024/01/15 11:55:19;;;;;;;1.50;0.90;;;;;;;5.12;63.59;100277.72;4966258;29;20051;-71
2024/01/15 11:57:51;;;;;;;2.90;1.00;;;;;;;5.09;63.34;100275.47;4965859;29;20059;-70
2024/01/15 12:00:19;;;;;;;3.28;1.10;;;;;;;5.19;63.63;100283.06;4964598;29;20055;-71
2024/01/15 12:02:50;;;;;;;3.42;1.88;;;;;;;5.29;63.07;100280.81;4965998;29;20057;-70
2024/01/15 12:05:20;;;;;;;2.13;0.85;;;;;;;5.40;62.69;100284.72;4966525;29;20059;-70
2024/01/15 12:07:49;;;;;;;2.45;1.00;;;;;;;5.55;62.42;100274.72;4965527;29;20122;-70
2024/01/15 12:10:19;;;;;;;1.35;0.88;;;;;;;5.68;61.87;100279.25;4965394;29;20066;-70
2024/01/15 12:12:58;;;;;;;3.05;1.20;;;;;;;5.81;61.45;100277.41;4951873;29;20544;-70
2024/01/15 12:15:29;;;;;;;2.10;1.00;;;;;;;5.96;60.92;100276.41;4946743;29;20654;-70
2024/01/15 12:18:00;;;;;;;1.17;0.77;;;;;;;6.10;60.77;100281.53;4960780;29;20051;-69
2024/01/15 12:20:29;;;;;;;1.67;0.90;;;;;;;6.18;60.25;100273.31;4954949;29;20511;-70
2024/01/15 12:22:57;;;;;;;2.00;0.95;;;;;;;6.29;60.30;100269.19;4958915;29;20053;-71
2024/01/15 12:25:32;;;;;;;2.40;0.88;;;;;;;6.30;59.86;100264.69;4965700;29;20078;-71
2024/01/15 12:28:01;;;;;;;3.00;1.23;;;;;;;6.24;59.94;100260.19;4958937;29;20066;-72
2024/01/15 12:30:31;;;;;;;2.53;0.82;;;;;;;6.12;60.07;100271.47;4946674;29;20052;-71
2024/01/15 12:33:03;;;;;;;3.33;0.82;;;;;;;5.95;61.09;100270.25;4964122;28;20051;-71
2024/01/15 12:35:32;;;;;;;2.55;0.70;;;;;;;5.80;61.40;100281.09;4947152;29;20052;-71
2024/01/15 12:38:02;;;;;;;3.67;1.00;;;;;;;5.67;61.99;100277.59;4957554;29;20047;-72
2024/01/15 12:40:31;;;;;;;4.07;0.90;;;;;;;5.60;62.10;100282.09;4962305;29;20378;-71
2024/01/15 12:42:59;;;;;;;0.90;0.90;;;;;;;5.44;62.64;100286.78;4961409;28;20055;-71
2024/01/15 12:45:27;;;;;;;3.20;0.73;;;;;;;5.38;62.79;100290.25;4965433;29;20063;-71